sensor_id;sensor_type;location;lat;lon;timestamp;temperature;humidity
1025;DHT22;501;48.214;11.350;2024-01-30T00:01:25;1.00;43.00
1025;DHT22;501;48.214;11.350;2024-01-30T00:03:51;1.00;42.70
1025;DHT22;501;48.214;11.350;2024-01-30T00:06:20;0.90;42.60
1025;DHT22;501;48.214;11.350;2024-01-30T00:08:46;0.90;42.70
1025;DHT22;501;48.214;11.350;2024-01-30T00:11:14;0.90;42.80
1025;DHT22;501;48.214;11.350;2024-01-30T00:13:40;0.90;42.70
1025;DHT22;501;48.214;11.350;2024-01-30T00:16:06;0.90;42.80
1025;DHT22;501;48.214;11.350;2024-01-30T00:18:32;0.80;43.00
1025;DHT22;501;48.214;11.350;2024-01-30T00:20:57;0.80;43.20
1025;DHT22;501;48.214;11.350;2024-01-30T00:23:23;0.80;43.50
1025;DHT22;501;48.214;11.350;2024-01-30T00:25:49;0.80;43.40
1025;DHT22;501;48.214;11.350;2024-01-30T00:28:15;0.80;43.00
1025;DHT22;501;48.214;11.350;2024-01-30T00:30:41;0.80;42.80
1025;DHT22;501;48.214;11.350;2024-01-30T00:33:06;0.80;42.40
1025;DHT22;501;48.214;11.350;2024-01-30T00:35:33;0.70;42.50
1025;DHT22;501;48.214;11.350;2024-01-30T00:37:58;0.70;42.60
1025;DHT22;501;48.214;11.350;2024-01-30T00:40:24;0.70;43.00
1025;DHT22;501;48.214;11.350;2024-01-30T00:42:50;0.60;43.90
1025;DHT22;501;48.214;11.350;2024-01-30T00:45:16;0.50;44.30
1025;DHT22;501;48.214;11.350;2024-01-30T00:47:42;0.50;44.40
1025;DHT22;501;48.214;11.350;2024-01-30T00:50:08;0.50;44.10
1025;DHT22;501;48.214;11.350;2024-01-30T00:52:34;0.50;44.10
1025;DHT22;501;48.214;11.350;2024-01-30T00:55:00;0.50;44.20
1025;DHT22;501;48.214;11.350;2024-01-30T00:57:25;0.50;44.30
1025;DHT22;501;48.214;11.350;2024-01-30T00:59:52;0.50;43.90
1025;DHT22;501;48.214;11.350;2024-01-30T01:02:18;0.50;43.70
1025;DHT22;501;48.214;11.350;2024-01-30T01:04:44;0.50;43.50
1025;DHT22;501;48.214;11.350;2024-01-30T01:07:10;0.50;43.90
1025;DHT22;501;48.214;11.350;2024-01-30T01:09:36;0.50;44.10
1025;DHT22;501;48.214;11.350;2024-01-30T01:12:02;0.50;43.70
1025;DHT22;501;48.214;11.350;2024-01-30T01:14:28;0.50;43.60
1025;DHT22;501;48.214;11.350;2024-01-30T01:16:53;0.50;43.50
1025;DHT22;501;48.214;11.350;2024-01-30T01:19:19;0.50;43.80
1025;DHT22;501;48.214;11.350;2024-01-30T01:21:45;0.50;43.40
1025;DHT22;501;48.214;11.350;2024-01-30T01:24:10;0.50;43.10
1025;DHT22;501;48.214;11.350;2024-01-30T01:26:36;0.50;43.10
1025;DHT22;501;48.214;11.350;2024-01-30T01:29:01;0.50;42.90
1025;DHT22;501;48.214;11.350;2024-01-30T01:31:29;0.40;42.70
1025;DHT22;501;48.214;11.350;2024-01-30T01:33:55;0.40;43.00
1025;DHT22;501;48.214;11.350;2024-01-30T01:36:22;0.40;43.20
1025;DHT22;501;48.214;11.350;2024-01-30T01:38:48;0.40;43.70
1025;DHT22;501;48.214;11.350;2024-01-30T01:41:13;0.30;44.60
1025;DHT22;501;48.214;11.350;2024-01-30T01:43:39;0.20;45.10
1025;DHT22;501;48.214;11.350;2024-01-30T01:46:06;0.20;45.70
1025;DHT22;501;48.214;11.350;2024-01-30T01:48:32;0.10;46.20
1025;DHT22;501;48.214;11.350;2024-01-30T01:50:59;0.10;46.60
1025;DHT22;501;48.214;11.350;2024-01-30T01:53:25;0.10;47.10
1025;DHT22;501;48.214;11.350;2024-01-30T01:55:51;0.20;46.30
1025;DHT22;501;48.214;11.350;2024-01-30T01:58:19;0.20;45.50
1025;DHT22;501;48.214;11.350;2024-01-30T02:00:46;0.20;45.00
1025;DHT22;501;48.214;11.350;2024-01-30T02:03:13;0.20;45.00
1025;DHT22;501;48.214;11.350;2024-01-30T02:05:43;0.20;43.90
1025;DHT22;501;48.214;11.350;2024-01-30T02:08:09;0.20;44.00
1025;DHT22;501;48.214;11.350;2024-01-30T02:10:35;0.20;44.50
1025;DHT22;501;48.214;11.350;2024-01-30T02:13:00;0.20;44.50
1025;DHT22;501;48.214;11.350;2024-01-30T02:15:26;0.20;44.30
1025;DHT22;501;48.214;11.350;2024-01-30T02:17:52;0.20;44.00
1025;DHT22;501;48.214;11.350;2024-01-30T02:20:18;0.20;44.10
1025;DHT22;501;48.214;11.350;2024-01-30T02:22:43;0.20;44.10
1025;DHT22;501;48.214;11.350;2024-01-30T02:25:09;0.20;44.10
1025;DHT22;501;48.214;11.350;2024-01-30T02:27:34;0.20;44.40
1025;DHT22;501;48.214;11.350;2024-01-30T02:30:00;0.20;44.90
1025;DHT22;501;48.214;11.350;2024-01-30T02:32:26;0.10;44.80
1025;DHT22;501;48.214;11.350;2024-01-30T02:34:51;0.10;45.00
1025;DHT22;501;48.214;11.350;2024-01-30T02:37:17;0.10;45.00
1025;DHT22;501;48.214;11.350;2024-01-30T02:39:42;0.10;45.00
1025;DHT22;501;48.214;11.350;2024-01-30T02:42:08;0.10;44.80
1025;DHT22;501;48.214;11.350;2024-01-30T02:44:34;0.10;44.70
1025;DHT22;501;48.214;11.350;2024-01-30T02:46:59;0.10;45.10
1025;DHT22;501;48.214;11.350;2024-01-30T02:49:25;0.10;44.90
1025;DHT22;501;48.214;11.350;2024-01-30T02:51:53;0.10;44.20
1025;DHT22;501;48.214;11.350;2024-01-30T02:54:19;0.10;44.30
1025;DHT22;501;48.214;11.350;2024-01-30T02:56:44;0.10;44.50
1025;DHT22;501;48.214;11.350;2024-01-30T02:59:10;0.10;44.40
1025;DHT22;501;48.214;11.350;2024-01-30T03:01:43;0.00;44.60
1025;DHT22;501;48.214;11.350;2024-01-30T03:04:09;0.10;44.60
1025;DHT22;501;48.214;11.350;2024-01-30T03:06:35;0.10;44.50
1025;DHT22;501;48.214;11.350;2024-01-30T03:09:00;0.00;44.40
1025;DHT22;501;48.214;11.350;2024-01-30T03:11:26;0.00;44.30
1025;DHT22;501;48.214;11.350;2024-01-30T03:13:51;0.00;44.30
1025;DHT22;501;48.214;11.350;2024-01-30T03:16:17;0.00;44.50
1025;DHT22;501;48.214;11.350;2024-01-30T03:18:43;0.00;43.50
1025;DHT22;501;48.214;11.350;2024-01-30T03:21:08;0.00;43.30
1025;DHT22;501;48.214;11.350;2024-01-30T03:23:34;0.00;43.70
1025;DHT22;501;48.214;11.350;2024-01-30T03:26:00;0.00;44.30
1025;DHT22;501;48.214;11.350;2024-01-30T03:28:25;0.00;44.50
1025;DHT22;501;48.214;11.350;2024-01-30T03:30:51;0.00;44.60
1025;DHT22;501;48.214;11.350;2024-01-30T03:33:17;-0.10;45.00
1025;DHT22;501;48.214;11.350;2024-01-30T03:35:42;-0.10;45.30
1025;DHT22;501;48.214;11.350;2024-01-30T03:38:08;-0.10;44.50
1025;DHT22;501;48.214;11.350;2024-01-30T03:40:34;-0.10;44.30
1025;DHT22;501;48.214;11.350;2024-01-30T03:42:59;-0.10;44.40
1025;DHT22;501;48.214;11.350;2024-01-30T03:45:25;-0.10;44.40
1025;DHT22;501;48.214;11.350;2024-01-30T03:47:50;-0.10;44.60
1025;DHT22;501;48.214;11.350;2024-01-30T03:50:16;-0.10;44.00
1025;DHT22;501;48.214;11.350;2024-01-30T03:52:42;-0.10;43.50
1025;DHT22;501;48.214;11.350;2024-01-30T03:55:07;-0.10;43.00
1025;DHT22;501;48.214;11.350;2024-01-30T03:57:33;-0.10;43.10
1025;DHT22;501;48.214;11.350;2024-01-30T03:59:59;-0.20;43.00
1025;DHT22;501;48.214;11.350;2024-01-30T04:02:24;-0.10;42.90
1025;DHT22;501;48.214;11.350;2024-01-30T04:04:50;-0.10;42.70
1025;DHT22;501;48.214;11.350;2024-01-30T04:07:15;-0.20;42.70
1025;DHT22;501;48.214;11.350;2024-01-30T04:09:41;-0.20;42.60
1025;DHT22;501;48.214;11.350;2024-01-30T04:12:07;-0.20;42.50
1025;DHT22;501;48.214;11.350;2024-01-30T04:14:32;-0.20;42.30
1025;DHT22;501;48.214;11.350;2024-01-30T04:16:58;-0.20;42.80
1025;DHT22;501;48.214;11.350;2024-01-30T04:19:24;-0.30;43.50
1025;DHT22;501;48.214;11.350;2024-01-30T04:21:49;-0.30;44.10
1025;DHT22;501;48.214;11.350;2024-01-30T04:24:15;-0.30;44.70
1025;DHT22;501;48.214;11.350;2024-01-30T04:26:43;-0.30;45.20
1025;DHT22;501;48.214;11.350;2024-01-30T04:29:09;-0.30;45.60
1025;DHT22;501;48.214;11.350;2024-01-30T04:31:36;-0.30;45.60
1025;DHT22;501;48.214;11.350;2024-01-30T04:34:02;-0.30;45.20
1025;DHT22;501;48.214;11.350;2024-01-30T04:36:27;-0.30;44.90
1025;DHT22;501;48.214;11.350;2024-01-30T04:38:53;-0.30;44.70
1025;DHT22;501;48.214;11.350;2024-01-30T04:41:19;-0.30;44.30
1025;DHT22;501;48.214;11.350;2024-01-30T04:43:44;-0.30;43.90
1025;DHT22;501;48.214;11.350;2024-01-30T04:46:10;-0.30;44.00
1025;DHT22;501;48.214;11.350;2024-01-30T04:48:36;-0.30;44.70
1025;DHT22;501;48.214;11.350;2024-01-30T04:51:01;-0.30;44.50
1025;DHT22;501;48.214;11.350;2024-01-30T04:53:32;-0.30;44.20
1025;DHT22;501;48.214;11.350;2024-01-30T04:55:58;-0.30;43.80
1025;DHT22;501;48.214;11.350;2024-01-30T04:58:24;-0.30;44.30
1025;DHT22;501;48.214;11.350;2024-01-30T05:00:49;-0.30;43.80
1025;DHT22;501;48.214;11.350;2024-01-30T05:03:18;-0.30;44.20
1025;DHT22;501;48.214;11.350;2024-01-30T05:05:44;-0.40;44.50
1025;DHT22;501;48.214;11.350;2024-01-30T05:08:09;-0.40;44.40
1025;DHT22;501;48.214;11.350;2024-01-30T05:10:35;-0.30;44.30
1025;DHT22;501;48.214;11.350;2024-01-30T05:13:01;-0.40;44.20
1025;DHT22;501;48.214;11.350;2024-01-30T05:15:26;-0.40;43.80
1025;DHT22;501;48.214;11.350;2024-01-30T05:17:52;-0.40;43.70
1025;DHT22;501;48.214;11.350;2024-01-30T05:20:17;-0.30;43.70
1025;DHT22;501;48.214;11.350;2024-01-30T05:22:43;-0.40;43.70
1025;DHT22;501;48.214;11.350;2024-01-30T05:25:11;-0.40;44.10
1025;DHT22;501;48.214;11.350;2024-01-30T05:27:37;-0.40;43.70
1025;DHT22;501;48.214;11.350;2024-01-30T05:30:04;-0.40;43.60
1025;DHT22;501;48.214;11.350;2024-01-30T05:32:30;-0.40;43.50
1025;DHT22;501;48.214;11.350;2024-01-30T05:34:55;-0.40;43.40
1025;DHT22;501;48.214;11.350;2024-01-30T05:37:21;-0.40;43.50
1025;DHT22;501;48.214;11.350;2024-01-30T05:39:47;-0.40;43.60
1025;DHT22;501;48.214;11.350;2024-01-30T05:42:12;-0.40;43.50
1025;DHT22;501;48.214;11.350;2024-01-30T05:44:38;-0.40;42.90
1025;DHT22;501;48.214;11.350;2024-01-30T05:47:03;-0.40;43.40
1025;DHT22;501;48.214;11.350;2024-01-30T05:49:29;-0.40;42.80
1025;DHT22;501;48.214;11.350;2024-01-30T05:51:55;-0.50;43.50
1025;DHT22;501;48.214;11.350;2024-01-30T05:54:21;-0.50;44.10
1025;DHT22;501;48.214;11.350;2024-01-30T05:56:46;-0.50;43.80
1025;DHT22;501;48.214;11.350;2024-01-30T05:59:12;-0.50;43.70
1025;DHT22;501;48.214;11.350;2024-01-30T06:01:38;-0.50;43.60
1025;DHT22;501;48.214;11.350;2024-01-30T06:04:03;-0.50;43.20
1025;DHT22;501;48.214;11.350;2024-01-30T06:06:29;-0.50;43.20
1025;DHT22;501;48.214;11.350;2024-01-30T06:08:55;-0.50;43.30
1025;DHT22;501;48.214;11.350;2024-01-30T06:11:21;-0.50;43.60
1025;DHT22;501;48.214;11.350;2024-01-30T06:13:47;-0.50;44.10
1025;DHT22;501;48.214;11.350;2024-01-30T06:16:12;-0.60;44.80
1025;DHT22;501;48.214;11.350;2024-01-30T06:18:38;-0.60;45.00
1025;DHT22;501;48.214;11.350;2024-01-30T06:21:04;-0.60;45.30
1025;DHT22;501;48.214;11.350;2024-01-30T06:23:30;-0.60;45.60
1025;DHT22;501;48.214;11.350;2024-01-30T06:25:56;-0.60;45.90
1025;DHT22;501;48.214;11.350;2024-01-30T06:28:21;-0.60;45.80
1025;DHT22;501;48.214;11.350;2024-01-30T06:30:47;-0.60;45.60
1025;DHT22;501;48.214;11.350;2024-01-30T06:33:13;-0.60;45.40
1025;DHT22;501;48.214;11.350;2024-01-30T06:35:39;-0.60;44.80
1025;DHT22;501;48.214;11.350;2024-01-30T06:38:05;-0.50;44.50
1025;DHT22;501;48.214;11.350;2024-01-30T06:40:31;-0.50;44.20
1025;DHT22;501;48.214;11.350;2024-01-30T06:42:57;-0.50;44.10
1025;DHT22;501;48.214;11.350;2024-01-30T06:45:22;-0.50;43.80
1025;DHT22;501;48.214;11.350;2024-01-30T06:47:48;-0.60;43.60
1025;DHT22;501;48.214;11.350;2024-01-30T06:50:15;-0.50;43.60
1025;DHT22;501;48.214;11.350;2024-01-30T06:52:41;-0.50;43.60
1025;DHT22;501;48.214;11.350;2024-01-30T06:55:07;-0.50;43.70
1025;DHT22;501;48.214;11.350;2024-01-30T06:57:32;-0.50;44.00
1025;DHT22;501;48.214;11.350;2024-01-30T06:59:58;-0.50;44.00
1025;DHT22;501;48.214;11.350;2024-01-30T07:02:24;-0.50;43.80
1025;DHT22;501;48.214;11.350;2024-01-30T07:04:50;-0.50;43.90
1025;DHT22;501;48.214;11.350;2024-01-30T07:07:15;-0.50;43.80
1025;DHT22;501;48.214;11.350;2024-01-30T07:09:41;-0.50;43.70
1025;DHT22;501;48.214;11.350;2024-01-30T07:12:07;-0.40;43.90
1025;DHT22;501;48.214;11.350;2024-01-30T07:14:33;-0.40;44.30
1025;DHT22;501;48.214;11.350;2024-01-30T07:16:59;-0.40;44.80
1025;DHT22;501;48.214;11.350;2024-01-30T07:19:24;-0.40;45.40
1025;DHT22;501;48.214;11.350;2024-01-30T07:21:50;-0.40;45.80
1025;DHT22;501;48.214;11.350;2024-01-30T07:24:15;-0.30;46.10
1025;DHT22;501;48.214;11.350;2024-01-30T07:26:41;-0.30;46.60
1025;DHT22;501;48.214;11.350;2024-01-30T07:29:06;-0.30;46.90
1025;DHT22;501;48.214;11.350;2024-01-30T07:31:32;-0.30;46.70
1025;DHT22;501;48.214;11.350;2024-01-30T07:33:58;-0.20;46.70
1025;DHT22;501;48.214;11.350;2024-01-30T07:36:23;-0.20;46.70
1025;DHT22;501;48.214;11.350;2024-01-30T07:38:49;-0.10;46.80
1025;DHT22;501;48.214;11.350;2024-01-30T07:41:14;-0.10;46.90
1025;DHT22;501;48.214;11.350;2024-01-30T07:43:40;0.00;47.10
1025;DHT22;501;48.214;11.350;2024-01-30T07:46:06;0.00;47.30
1025;DHT22;501;48.214;11.350;2024-01-30T07:48:33;0.10;47.60
1025;DHT22;501;48.214;11.350;2024-01-30T07:50:59;0.10;48.00
1025;DHT22;501;48.214;11.350;2024-01-30T07:53:25;0.10;48.50
1025;DHT22;501;48.214;11.350;2024-01-30T07:55:50;0.10;49.10
1025;DHT22;501;48.214;11.350;2024-01-30T07:58:16;0.20;49.90
1025;DHT22;501;48.214;11.350;2024-01-30T08:00:42;0.20;50.20
1025;DHT22;501;48.214;11.350;2024-01-30T08:03:07;0.30;50.70
1025;DHT22;501;48.214;11.350;2024-01-30T08:05:33;0.40;51.40
1025;DHT22;501;48.214;11.350;2024-01-30T08:07:59;0.50;51.90
1025;DHT22;501;48.214;11.350;2024-01-30T08:10:24;0.60;52.60
1025;DHT22;501;48.214;11.350;2024-01-30T08:12:50;0.70;52.10
1025;DHT22;501;48.214;11.350;2024-01-30T08:15:16;0.70;52.00
1025;DHT22;501;48.214;11.350;2024-01-30T08:17:41;0.80;52.10
1025;DHT22;501;48.214;11.350;2024-01-30T08:20:07;0.90;52.00
1025;DHT22;501;48.214;11.350;2024-01-30T08:22:38;1.00;52.10
1025;DHT22;501;48.214;11.350;2024-01-30T08:25:06;1.10;52.10
1025;DHT22;501;48.214;11.350;2024-01-30T08:27:31;1.20;51.80
1025;DHT22;501;48.214;11.350;2024-01-30T08:29:57;1.20;51.40
1025;DHT22;501;48.214;11.350;2024-01-30T08:32:23;1.30;51.20
1025;DHT22;501;48.214;11.350;2024-01-30T08:34:50;1.40;51.30
1025;DHT22;501;48.214;11.350;2024-01-30T08:37:16;1.40;51.30
1025;DHT22;501;48.214;11.350;2024-01-30T08:39:43;1.50;51.10
1025;DHT22;501;48.214;11.350;2024-01-30T08:42:08;1.60;50.50
1025;DHT22;501;48.214;11.350;2024-01-30T08:44:34;1.70;50.30
1025;DHT22;501;48.214;11.350;2024-01-30T08:47:00;1.80;49.60
1025;DHT22;501;48.214;11.350;2024-01-30T08:49:25;1.90;48.80
1025;DHT22;501;48.214;11.350;2024-01-30T08:51:51;2.00;48.50
1025;DHT22;501;48.214;11.350;2024-01-30T08:54:16;2.00;48.40
1025;DHT22;501;48.214;11.350;2024-01-30T08:56:43;2.10;48.50
1025;DHT22;501;48.214;11.350;2024-01-30T08:59:08;2.20;48.50
1025;DHT22;501;48.214;11.350;2024-01-30T09:01:34;2.30;47.60
1025;DHT22;501;48.214;11.350;2024-01-30T09:04:00;2.40;46.80
1025;DHT22;501;48.214;11.350;2024-01-30T09:06:25;2.50;46.50
1025;DHT22;501;48.214;11.350;2024-01-30T09:08:53;2.60;46.60
1025;DHT22;501;48.214;11.350;2024-01-30T09:11:19;2.70;46.40
1025;DHT22;501;48.214;11.350;2024-01-30T09:13:45;2.80;46.00
1025;DHT22;501;48.214;11.350;2024-01-30T09:16:10;2.90;46.00
1025;DHT22;501;48.214;11.350;2024-01-30T09:18:36;3.00;46.00
1025;DHT22;501;48.214;11.350;2024-01-30T09:21:01;3.10;45.90
1025;DHT22;501;48.214;11.350;2024-01-30T09:23:27;3.20;45.70
1025;DHT22;501;48.214;11.350;2024-01-30T09:25:53;3.30;45.60
1025;DHT22;501;48.214;11.350;2024-01-30T09:28:19;3.30;44.70
1025;DHT22;501;48.214;11.350;2024-01-30T09:30:45;3.40;44.40
1025;DHT22;501;48.214;11.350;2024-01-30T09:33:11;3.60;44.50
1025;DHT22;501;48.214;11.350;2024-01-30T09:35:36;3.70;44.60
1025;DHT22;501;48.214;11.350;2024-01-30T09:38:02;3.80;44.70
1025;DHT22;501;48.214;11.350;2024-01-30T09:40:28;3.90;43.30
1025;DHT22;501;48.214;11.350;2024-01-30T09:42:55;4.00;42.80
1025;DHT22;501;48.214;11.350;2024-01-30T09:45:24;4.10;42.10
1025;DHT22;501;48.214;11.350;2024-01-30T09:47:50;4.20;41.20
1025;DHT22;501;48.214;11.350;2024-01-30T09:50:17;4.40;40.90
1025;DHT22;501;48.214;11.350;2024-01-30T09:52:44;4.50;40.20
1025;DHT22;501;48.214;11.350;2024-01-30T09:55:10;4.60;39.90
1025;DHT22;501;48.214;11.350;2024-01-30T09:57:36;4.70;39.30
1025;DHT22;501;48.214;11.350;2024-01-30T10:00:05;4.80;39.00
1025;DHT22;501;48.214;11.350;2024-01-30T10:02:34;4.90;38.60
1025;DHT22;501;48.214;11.350;2024-01-30T10:05:00;4.90;39.10
1025;DHT22;501;48.214;11.350;2024-01-30T10:07:26;5.00;40.00
1025;DHT22;501;48.214;11.350;2024-01-30T10:09:53;5.10;40.40
1025;DHT22;501;48.214;11.350;2024-01-30T10:12:19;5.10;40.40
1025;DHT22;501;48.214;11.350;2024-01-30T10:14:44;5.20;40.20
1025;DHT22;501;48.214;11.350;2024-01-30T10:17:11;5.30;39.80
1025;DHT22;501;48.214;11.350;2024-01-30T10:19:41;5.30;39.40
1025;DHT22;501;48.214;11.350;2024-01-30T10:22:07;5.40;38.50
1025;DHT22;501;48.214;11.350;2024-01-30T10:24:36;5.50;37.30
1025;DHT22;501;48.214;11.350;2024-01-30T10:27:02;5.60;36.20
1025;DHT22;501;48.214;11.350;2024-01-30T10:29:28;5.70;36.50
1025;DHT22;501;48.214;11.350;2024-01-30T10:31:58;5.80;36.80
1025;DHT22;501;48.214;11.350;2024-01-30T10:34:24;5.90;36.50
1025;DHT22;501;48.214;11.350;2024-01-30T10:37:07;6.00;36.00
1025;DHT22;501;48.214;11.350;2024-01-30T10:39:38;6.10;35.30
1025;DHT22;501;48.214;11.350;2024-01-30T10:42:05;6.20;34.10
1025;DHT22;501;48.214;11.350;2024-01-30T10:44:39;6.30;33.20
1025;DHT22;501;48.214;11.350;2024-01-30T10:47:12;6.40;32.00
1025;DHT22;501;48.214;11.350;2024-01-30T10:49:41;6.50;30.90
1025;DHT22;501;48.214;11.350;2024-01-30T10:52:13;6.60;30.40
1025;DHT22;501;48.214;11.350;2024-01-30T10:54:40;6.70;30.20
1025;DHT22;501;48.214;11.350;2024-01-30T10:57:11;6.90;29.60
1025;DHT22;501;48.214;11.350;2024-01-30T10:59:38;7.00;29.30
1025;DHT22;501;48.214;11.350;2024-01-30T11:02:05;7.10;28.80
1025;DHT22;501;48.214;11.350;2024-01-30T11:04:38;7.30;29.10
1025;DHT22;501;48.214;11.350;2024-01-30T11:07:27;7.50;28.60
1025;DHT22;501;48.214;11.350;2024-01-30T11:10:12;7.60;28.00
1025;DHT22;501;48.214;11.350;2024-01-30T11:12:40;7.70;28.00
1025;DHT22;501;48.214;11.350;2024-01-30T11:15:15;7.90;28.40
1025;DHT22;501;48.214;11.350;2024-01-30T11:20:26;8.10;28.60
1025;DHT22;501;48.214;11.350;2024-01-30T11:22:55;8.20;28.10
1025;DHT22;501;48.214;11.350;2024-01-30T11:25:21;8.40;28.00
1025;DHT22;501;48.214;11.350;2024-01-30T11:27:55;8.60;28.30
1025;DHT22;501;48.214;11.350;2024-01-30T11:30:29;8.70;28.30
1025;DHT22;501;48.214;11.350;2024-01-30T11:33:07;8.80;28.40
1025;DHT22;501;48.214;11.350;2024-01-30T11:35:38;9.00;28.10
1025;DHT22;501;48.214;11.350;2024-01-30T11:38:05;9.20;28.10
1025;DHT22;501;48.214;11.350;2024-01-30T11:40:32;9.30;27.90
1025;DHT22;501;48.214;11.350;2024-01-30T11:43:00;9.50;28.10
1025;DHT22;501;48.214;11.350;2024-01-30T11:45:27;9.60;28.10
1025;DHT22;501;48.214;11.350;2024-01-30T11:47:53;9.70;27.80
1025;DHT22;501;48.214;11.350;2024-01-30T11:50:19;9.70;27.90
1025;DHT22;501;48.214;11.350;2024-01-30T11:52:45;9.90;27.60
1025;DHT22;501;48.214;11.350;2024-01-30T11:55:12;9.90;27.60
1025;DHT22;501;48.214;11.350;2024-01-30T11:57:38;10.00;26.40
1025;DHT22;501;48.214;11.350;2024-01-30T12:00:05;10.00;26.30
1025;DHT22;501;48.214;11.350;2024-01-30T12:02:36;10.10;26.20
1025;DHT22;501;48.214;11.350;2024-01-30T12:05:06;10.10;25.90
1025;DHT22;501;48.214;11.350;2024-01-30T12:07:32;10.20;26.00
1025;DHT22;501;48.214;11.350;2024-01-30T12:09:58;10.20;26.30
1025;DHT22;501;48.214;11.350;2024-01-30T12:12:27;10.20;26.20
1025;DHT22;501;48.214;11.350;2024-01-30T12:14:54;10.30;25.90
1025;DHT22;501;48.214;11.350;2024-01-30T12:17:31;10.40;25.80
1025;DHT22;501;48.214;11.350;2024-01-30T12:20:09;10.40;25.80
1025;DHT22;501;48.214;11.350;2024-01-30T12:22:40;10.50;25.60
1025;DHT22;501;48.214;11.350;2024-01-30T12:25:16;10.60;24.80
1025;DHT22;501;48.214;11.350;2024-01-30T12:27:46;10.70;24.20
1025;DHT22;501;48.214;11.350;2024-01-30T12:30:15;10.90;24.40
1025;DHT22;501;48.214;11.350;2024-01-30T12:32:42;11.00;24.40
1025;DHT22;501;48.214;11.350;2024-01-30T12:35:15;11.10;24.60
1025;DHT22;501;48.214;11.350;2024-01-30T12:37:42;11.30;24.60
1025;DHT22;501;48.214;11.350;2024-01-30T12:40:09;11.50;24.60
1025;DHT22;501;48.214;11.350;2024-01-30T12:42:35;11.60;24.40
1025;DHT22;501;48.214;11.350;2024-01-30T12:45:05;11.80;24.10
1025;DHT22;501;48.214;11.350;2024-01-30T12:47:32;11.90;23.20
1025;DHT22;501;48.214;11.350;2024-01-30T12:49:58;12.00;22.50
1025;DHT22;501;48.214;11.350;2024-01-30T12:52:24;12.10;23.00
1025;DHT22;501;48.214;11.350;2024-01-30T12:54:50;12.30;23.30
1025;DHT22;501;48.214;11.350;2024-01-30T12:57:16;12.40;23.70
1025;DHT22;501;48.214;11.350;2024-01-30T12:59:42;12.50;23.00
1025;DHT22;501;48.214;11.350;2024-01-30T13:02:08;12.60;22.50
1025;DHT22;501;48.214;11.350;2024-01-30T13:04:34;12.70;23.20
1025;DHT22;501;48.214;11.350;2024-01-30T13:07:00;12.90;23.50
1025;DHT22;501;48.214;11.350;2024-01-30T13:09:26;13.00;23.30
1025;DHT22;501;48.214;11.350;2024-01-30T13:11:52;13.10;23.10
1025;DHT22;501;48.214;11.350;2024-01-30T13:14:18;13.30;23.20
1025;DHT22;501;48.214;11.350;2024-01-30T13:16:44;13.50;23.30
1025;DHT22;501;48.214;11.350;2024-01-30T13:19:10;13.90;22.50
1025;DHT22;501;48.214;11.350;2024-01-30T13:21:36;14.20;22.00
1025;DHT22;501;48.214;11.350;2024-01-30T13:24:02;14.60;21.90
1025;DHT22;501;48.214;11.350;2024-01-30T13:26:28;15.00;21.10
1025;DHT22;501;48.214;11.350;2024-01-30T13:28:53;15.50;21.00
1025;DHT22;501;48.214;11.350;2024-01-30T13:31:19;16.00;20.40
1025;DHT22;501;48.214;11.350;2024-01-30T13:33:45;16.30;20.10
1025;DHT22;501;48.214;11.350;2024-01-30T13:36:11;16.60;20.80
1025;DHT22;501;48.214;11.350;2024-01-30T13:38:37;16.90;20.40
1025;DHT22;501;48.214;11.350;2024-01-30T13:41:04;17.20;19.90
1025;DHT22;501;48.214;11.350;2024-01-30T13:43:30;17.40;19.50
1025;DHT22;501;48.214;11.350;2024-01-30T13:45:56;17.50;19.70
1025;DHT22;501;48.214;11.350;2024-01-30T13:48:21;17.50;19.50
1025;DHT22;501;48.214;11.350;2024-01-30T13:50:47;17.40;19.50
1025;DHT22;501;48.214;11.350;2024-01-30T13:53:14;17.20;19.50
1025;DHT22;501;48.214;11.350;2024-01-30T13:55:39;17.00;19.40
1025;DHT22;501;48.214;11.350;2024-01-30T13:58:06;16.80;19.60
1025;DHT22;501;48.214;11.350;2024-01-30T14:00:32;16.50;19.50
1025;DHT22;501;48.214;11.350;2024-01-30T14:02:59;16.10;20.00
1025;DHT22;501;48.214;11.350;2024-01-30T14:05:26;15.90;20.30
1025;DHT22;501;48.214;11.350;2024-01-30T14:07:53;15.70;20.60
1025;DHT22;501;48.214;11.350;2024-01-30T14:10:19;15.50;20.50
1025;DHT22;501;48.214;11.350;2024-01-30T14:12:45;15.30;21.60
1025;DHT22;501;48.214;11.350;2024-01-30T14:15:11;15.20;21.60
1025;DHT22;501;48.214;11.350;2024-01-30T14:17:38;15.00;21.10
1025;DHT22;501;48.214;11.350;2024-01-30T14:20:04;14.90;21.50
1025;DHT22;501;48.214;11.350;2024-01-30T14:22:30;14.70;22.00
1025;DHT22;501;48.214;11.350;2024-01-30T14:24:56;14.60;21.80
1025;DHT22;501;48.214;11.350;2024-01-30T14:27:22;14.40;22.10
1025;DHT22;501;48.214;11.350;2024-01-30T14:29:47;14.30;21.90
1025;DHT22;501;48.214;11.350;2024-01-30T14:32:13;14.10;22.10
1025;DHT22;501;48.214;11.350;2024-01-30T14:34:39;14.00;22.20
1025;DHT22;501;48.214;11.350;2024-01-30T14:37:05;13.80;22.50
1025;DHT22;501;48.214;11.350;2024-01-30T14:39:30;13.70;22.70
1025;DHT22;501;48.214;11.350;2024-01-30T14:41:57;13.70;23.40
1025;DHT22;501;48.214;11.350;2024-01-30T14:44:22;13.60;23.60
1025;DHT22;501;48.214;11.350;2024-01-30T14:46:49;13.60;23.80
1025;DHT22;501;48.214;11.350;2024-01-30T14:49:15;13.50;23.50
1025;DHT22;501;48.214;11.350;2024-01-30T14:51:41;13.50;23.60
1025;DHT22;501;48.214;11.350;2024-01-30T14:54:07;13.50;23.90
1025;DHT22;501;48.214;11.350;2024-01-30T14:56:33;13.50;22.90
1025;DHT22;501;48.214;11.350;2024-01-30T14:58:59;13.50;22.80
1025;DHT22;501;48.214;11.350;2024-01-30T15:01:24;13.40;22.90
1025;DHT22;501;48.214;11.350;2024-01-30T15:03:51;13.30;23.20
1025;DHT22;501;48.214;11.350;2024-01-30T15:06:18;13.20;23.30
1025;DHT22;501;48.214;11.350;2024-01-30T15:08:44;13.20;23.60
1025;DHT22;501;48.214;11.350;2024-01-30T15:11:10;13.10;23.40
1025;DHT22;501;48.214;11.350;2024-01-30T15:13:36;13.00;23.70
1025;DHT22;501;48.214;11.350;2024-01-30T15:16:02;12.90;23.50
1025;DHT22;501;48.214;11.350;2024-01-30T15:18:30;12.90;23.60
1025;DHT22;501;48.214;11.350;2024-01-30T15:20:56;12.80;22.80
1025;DHT22;501;48.214;11.350;2024-01-30T15:23:21;12.70;23.20
1025;DHT22;501;48.214;11.350;2024-01-30T15:25:47;12.60;22.70
1025;DHT22;501;48.214;11.350;2024-01-30T15:28:13;12.50;22.60
1025;DHT22;501;48.214;11.350;2024-01-30T15:30:40;12.40;22.70
1025;DHT22;501;48.214;11.350;2024-01-30T15:33:09;12.30;22.70
1025;DHT22;501;48.214;11.350;2024-01-30T15:35:34;12.20;23.00
1025;DHT22;501;48.214;11.350;2024-01-30T15:38:00;12.00;22.90
1025;DHT22;501;48.214;11.350;2024-01-30T15:40:26;11.90;23.40
1025;DHT22;501;48.214;11.350;2024-01-30T15:42:52;11.80;23.50
1025;DHT22;501;48.214;11.350;2024-01-30T15:45:18;11.60;23.70
1025;DHT22;501;48.214;11.350;2024-01-30T15:47:44;11.50;24.20
1025;DHT22;501;48.214;11.350;2024-01-30T15:50:11;11.40;24.60
1025;DHT22;501;48.214;11.350;2024-01-30T15:52:37;11.20;24.50
1025;DHT22;501;48.214;11.350;2024-01-30T15:55:02;11.10;24.80
1025;DHT22;501;48.214;11.350;2024-01-30T15:57:28;10.90;25.00
1025;DHT22;501;48.214;11.350;2024-01-30T15:59:54;10.80;25.20
1025;DHT22;501;48.214;11.350;2024-01-30T16:02:20;10.60;25.30
1025;DHT22;501;48.214;11.350;2024-01-30T16:04:46;10.50;25.50
1025;DHT22;501;48.214;11.350;2024-01-30T16:07:12;10.30;25.80